createdAt,value
2017-09-21T00:02:01.204Z,4.50
2017-09-21T00:04:28.556Z,4.57
2017-09-21T00:06:55.923Z,3.87
2017-09-21T00:09:23.528Z,4.40
2017-09-21T00:11:50.877Z,3.53
2017-09-21T00:14:18.249Z,5.37
2017-09-21T00:16:45.605Z,5.23
2017-09-21T00:19:12.905Z,4.60
2017-09-21T00:21:40.338Z,4.17
2017-09-21T00:24:07.659Z,3.70
2017-09-21T00:26:35.145Z,4.10
2017-09-21T00:29:02.456Z,3.97
2017-09-21T00:31:29.839Z,5.03
2017-09-21T00:33:57.214Z,4.17
2017-09-21T00:36:24.589Z,4.77
2017-09-21T00:38:51.997Z,5.10
2017-09-21T00:41:19.345Z,3.73
2017-09-21T00:43:46.741Z,5.27
2017-09-21T00:46:14.064Z,4.70
2017-09-21T00:48:41.470Z,4.33
2017-09-21T00:51:08.793Z,4.00
2017-09-21T00:53:36.150Z,3.70
2017-09-21T00:56:03.569Z,4.30
2017-09-21T00:58:30.919Z,4.57
2017-09-21T01:00:58.231Z,5.10
2017-09-21T01:03:25.674Z,5.80
2017-09-21T01:05:52.976Z,4.53
2017-09-21T01:08:20.635Z,4.47
2017-09-21T01:10:47.986Z,4.50
2017-09-21T01:13:15.501Z,4.00
2017-09-21T01:15:42.866Z,4.60
2017-09-21T01:18:10.280Z,4.97
2017-09-21T01:20:37.646Z,4.73
2017-09-21T01:23:05.038Z,4.60
2017-09-21T01:25:32.551Z,5.40
2017-09-21T01:28:00.018Z,5.40
2017-09-21T01:30:27.604Z,5.43
2017-09-21T01:32:56.090Z,4.40
2017-09-21T01:35:23.672Z,5.47
2017-09-21T01:37:51.099Z,5.20
2017-09-21T01:40:18.483Z,4.60
2017-09-21T01:42:45.891Z,4.37
2017-09-21T01:45:13.356Z,4.40
2017-09-21T01:47:40.833Z,4.20
2017-09-21T01:50:08.273Z,5.63
2017-09-21T01:52:35.622Z,3.60
2017-09-21T01:55:03.796Z,4.40
2017-09-21T01:57:31.169Z,4.60
2017-09-21T01:59:58.555Z,4.30
2017-09-21T02:02:25.979Z,4.83
2017-09-21T02:04:53.352Z,4.83
2017-09-21T02:07:20.685Z,4.73
2017-09-21T02:09:48.102Z,4.97
2017-09-21T02:12:15.579Z,4.93
2017-09-21T02:14:42.911Z,6.10
2017-09-21T02:17:10.310Z,5.70
2017-09-21T02:19:37.805Z,3.93
2017-09-21T02:22:05.263Z,5.07
2017-09-21T02:24:32.688Z,5.57
2017-09-21T02:27:00.077Z,4.70
2017-09-21T02:29:27.445Z,4.27
2017-09-21T02:31:54.823Z,4.70
2017-09-21T02:34:22.125Z,5.00
2017-09-21T02:36:49.537Z,4.70
2017-09-21T02:39:16.918Z,4.73
2017-09-21T02:41:44.211Z,5.20
2017-09-21T02:44:11.638Z,5.40
2017-09-21T02:46:39.055Z,3.83
2017-09-21T02:49:06.360Z,3.87
2017-09-21T02:51:33.967Z,5.20
2017-09-21T02:54:01.355Z,4.90
2017-09-21T02:56:28.819Z,4.43
2017-09-21T02:58:56.217Z,5.37
2017-09-21T03:01:23.874Z,4.23
2017-09-21T03:03:51.309Z,4.07
2017-09-21T03:06:18.660Z,5.03
2017-09-21T03:08:46.115Z,5.20
2017-09-21T03:11:13.645Z,5.10
2017-09-21T03:13:41.064Z,5.20
2017-09-21T03:16:08.448Z,4.83
2017-09-21T03:18:35.880Z,4.87
2017-09-21T03:21:03.352Z,4.43
2017-09-21T03:23:30.722Z,3.77
2017-09-21T03:25:58.238Z,5.80
2017-09-21T03:28:25.638Z,4.73
2017-09-21T03:30:53.033Z,5.93
2017-09-21T03:33:20.462Z,5.03
2017-09-21T03:35:47.874Z,5.10
2017-09-21T03:38:15.324Z,4.70
2017-09-21T03:40:43.082Z,5.73
2017-09-21T03:43:10.564Z,4.37
2017-09-21T03:45:38.214Z,4.60
2017-09-21T03:48:05.596Z,4.10
2017-09-21T03:50:33.965Z,5.10
2017-09-21T03:53:01.363Z,4.00
2017-09-21T03:55:29.164Z,4.40
2017-09-21T03:57:56.523Z,4.73
2017-09-21T04:00:24.049Z,4.47
2017-09-21T04:02:51.400Z,5.57
2017-09-21T04:05:18.993Z,4.40
2017-09-21T04:07:46.517Z,4.80
2017-09-21T04:10:14.572Z,5.73
2017-09-21T04:12:41.893Z,5.10
2017-09-21T04:15:09.377Z,4.70
2017-09-21T04:17:36.957Z,6.47
2017-09-21T04:20:04.307Z,4.50
2017-09-21T04:22:31.699Z,4.80
2017-09-21T04:24:59.016Z,5.07
2017-09-21T04:27:26.338Z,5.43
2017-09-21T04:29:53.785Z,4.10
2017-09-21T04:32:21.159Z,4.47
2017-09-21T04:34:48.691Z,4.23
2017-09-21T04:37:16.093Z,3.90
2017-09-21T04:39:43.511Z,4.37
2017-09-21T04:42:10.862Z,5.20
2017-09-21T04:44:38.315Z,4.23
2017-09-21T04:47:05.935Z,5.17
2017-09-21T04:49:33.543Z,6.77
2017-09-21T04:52:00.926Z,5.53
2017-09-21T04:54:28.361Z,5.40
2017-09-21T04:56:56.457Z,4.23
2017-09-21T04:59:23.775Z,5.00
2017-09-21T05:01:51.555Z,6.50
2017-09-21T05:04:18.960Z,4.80
2017-09-21T05:06:46.302Z,6.90
2017-09-21T05:09:13.930Z,4.77
2017-09-21T05:11:47.969Z,5.50
2017-09-21T05:14:15.395Z,5.80
2017-09-21T05:16:42.914Z,5.47
2017-09-21T05:19:10.373Z,4.80
2017-09-21T05:21:37.887Z,5.17
2017-09-21T05:24:05.247Z,4.97
2017-09-21T05:26:32.592Z,4.50
2017-09-21T05:29:00.022Z,7.33
2017-09-21T05:31:27.481Z,4.80
2017-09-21T05:33:54.995Z,5.20
2017-09-21T05:36:22.474Z,4.70
2017-09-21T05:38:49.903Z,5.17
2017-09-21T05:41:17.407Z,4.83
2017-09-21T05:43:44.850Z,6.83
2017-09-21T05:46:12.389Z,6.13
2017-09-21T05:48:39.828Z,5.53
2017-09-21T05:51:07.304Z,6.90
2017-09-21T05:53:34.718Z,4.50
2017-09-21T05:56:02.108Z,5.30
2017-09-21T05:58:29.714Z,5.40
2017-09-21T06:00:57.264Z,5.40
2017-09-21T06:03:24.674Z,5.20
2017-09-21T06:05:52.065Z,5.03
2017-09-21T06:08:19.607Z,5.87
2017-09-21T06:10:47.259Z,5.33
2017-09-21T06:13:14.633Z,8.80
2017-09-21T06:15:43.508Z,6.50
2017-09-21T06:18:10.821Z,7.07
2017-09-21T06:20:38.315Z,5.30
2017-09-21T06:23:05.758Z,5.20
2017-09-21T06:25:33.363Z,5.10
2017-09-21T06:28:01.000Z,6.00
2017-09-21T06:30:30.274Z,5.50
2017-09-21T06:32:57.780Z,33.53
2017-09-21T06:35:25.235Z,22.50
2017-09-21T06:37:52.717Z,16.00
2017-09-21T06:40:29.309Z,9.73
2017-09-21T06:43:00.413Z,10.40
2017-09-21T06:45:27.945Z,10.30
2017-09-21T06:47:55.354Z,11.93
2017-09-21T06:50:23.349Z,8.53
2017-09-21T06:52:50.768Z,7.80
2017-09-21T06:55:18.307Z,6.63
2017-09-21T06:57:45.892Z,5.87
2017-09-21T07:00:13.969Z,5.47
2017-09-21T07:02:41.376Z,6.63
2017-09-21T07:05:08.807Z,5.77
2017-09-21T07:07:36.326Z,5.70
2017-09-21T07:10:03.763Z,5.40
2017-09-21T07:12:31.122Z,5.60
2017-09-21T07:14:58.604Z,8.50
2017-09-21T07:17:25.940Z,9.13
2017-09-21T07:19:53.372Z,8.70
2017-09-21T07:22:22.098Z,9.13
2017-09-21T07:24:52.548Z,7.90
2017-09-21T07:27:20.424Z,7.53
2017-09-21T07:29:50.247Z,6.20
2017-09-21T07:32:18.350Z,6.90
2017-09-21T07:34:45.816Z,7.47
2017-09-21T07:37:13.127Z,6.93
2017-09-21T07:39:40.568Z,6.30
2017-09-21T07:42:07.970Z,8.47
2017-09-21T07:44:35.364Z,8.17
2017-09-21T07:47:02.912Z,8.10
2017-09-21T07:49:30.252Z,7.70
2017-09-21T07:51:57.907Z,9.43
2017-09-21T07:54:25.311Z,8.97
2017-09-21T07:56:52.811Z,9.30
2017-09-21T07:59:20.225Z,9.20
2017-09-21T08:01:47.698Z,8.13
2017-09-21T08:04:15.097Z,8.50
2017-09-21T08:06:42.503Z,8.60
2017-09-21T08:09:09.856Z,9.30
2017-09-21T08:11:37.259Z,7.97
2017-09-21T08:14:04.597Z,7.40
2017-09-21T08:16:31.943Z,7.33
2017-09-21T08:18:59.309Z,8.47
2017-09-21T08:21:26.620Z,8.37
2017-09-21T08:23:53.982Z,7.80
2017-09-21T08:26:21.324Z,8.77
2017-09-21T08:28:48.692Z,8.80
2017-09-21T08:31:16.074Z,8.30
2017-09-21T08:33:43.426Z,9.20
2017-09-21T08:36:10.792Z,9.30
2017-09-21T08:38:38.107Z,8.70
2017-09-21T08:41:05.447Z,8.60
2017-09-21T08:43:32.825Z,9.17
2017-09-21T08:46:00.152Z,8.90
2017-09-21T08:48:27.789Z,8.27
2017-09-21T08:50:55.297Z,7.23
2017-09-21T08:53:22.664Z,7.40
2017-09-21T08:55:50.022Z,7.57
2017-09-21T08:58:17.431Z,7.10
2017-09-21T09:00:44.808Z,6.90
2017-09-21T09:03:12.176Z,7.17
2017-09-21T09:05:39.602Z,7.90
2017-09-21T09:08:06.934Z,7.80
2017-09-21T09:10:34.250Z,8.17
2017-09-21T09:13:01.576Z,8.30
2017-09-21T09:15:29.025Z,8.83
2017-09-21T09:17:56.338Z,8.13
2017-09-21T09:20:23.695Z,9.20
2017-09-21T09:22:51.051Z,8.97
2017-09-21T09:25:18.373Z,8.00
2017-09-21T09:27:45.796Z,7.50
2017-09-21T09:30:13.122Z,7.83
2017-09-21T09:32:40.375Z,7.43
2017-09-21T09:35:07.667Z,8.53
2017-09-21T09:37:34.962Z,7.80
2017-09-21T09:40:02.230Z,6.90
2017-09-21T09:42:29.537Z,8.70
2017-09-21T09:44:56.791Z,8.77
2017-09-21T09:47:24.060Z,8.90
2017-09-21T09:49:51.357Z,8.40
2017-09-21T09:52:18.619Z,7.70
2017-09-21T09:54:45.969Z,9.27
2017-09-21T09:57:13.306Z,7.67
2017-09-21T09:59:40.695Z,8.97
2017-09-21T10:02:08.029Z,7.73
2017-09-21T10:04:35.333Z,8.80
2017-09-21T10:07:02.669Z,8.93
2017-09-21T10:09:29.987Z,7.87
2017-09-21T10:11:57.311Z,8.50
2017-09-21T10:14:24.643Z,8.10
2017-09-21T10:16:51.965Z,9.63
2017-09-21T10:19:19.315Z,8.30
2017-09-21T10:21:46.718Z,7.93
2017-09-21T10:24:13.990Z,8.70
2017-09-21T10:26:41.324Z,10.00
2017-09-21T10:29:08.650Z,10.63
2017-09-21T10:31:35.988Z,10.40
2017-09-21T10:34:03.295Z,9.07
2017-09-21T10:36:30.589Z,10.10
2017-09-21T10:38:57.929Z,10.17
2017-09-21T10:41:25.309Z,10.10
2017-09-21T10:43:52.656Z,10.67
2017-09-21T10:46:19.975Z,10.57
2017-09-21T10:48:47.329Z,11.30
2017-09-21T10:51:14.628Z,11.23
2017-09-21T10:53:41.934Z,10.43
2017-09-21T10:56:09.254Z,9.60
2017-09-21T10:58:36.571Z,9.70
2017-09-21T11:01:03.907Z,8.53
2017-09-21T11:03:31.200Z,8.80
2017-09-21T11:05:58.547Z,8.50
2017-09-21T11:08:25.826Z,8.23
2017-09-21T11:10:53.167Z,9.00
2017-09-21T11:13:20.499Z,7.80
2017-09-21T11:15:48.015Z,7.20
2017-09-21T11:18:15.967Z,8.10
2017-09-21T11:20:44.055Z,7.13
2017-09-21T11:23:11.377Z,8.53
2017-09-21T11:25:38.671Z,7.93
2017-09-21T11:28:06.286Z,7.00
2017-09-21T11:30:33.580Z,6.70
2017-09-21T11:33:00.900Z,7.30
2017-09-21T11:35:28.235Z,7.20
2017-09-21T11:37:55.525Z,6.90
2017-09-21T11:40:22.843Z,6.83
2017-09-21T11:42:50.116Z,7.47
2017-09-21T11:45:17.411Z,6.97
2017-09-21T11:47:44.734Z,6.63
2017-09-21T11:50:12.047Z,7.00
2017-09-21T11:52:39.333Z,6.40
2017-09-21T11:55:06.660Z,7.37
2017-09-21T11:57:33.962Z,8.50
2017-09-21T12:00:01.298Z,7.07
2017-09-21T12:02:28.615Z,6.03
2017-09-21T12:04:55.907Z,5.73
2017-09-21T12:07:23.233Z,5.10
2017-09-21T12:09:50.521Z,5.50
2017-09-21T12:12:17.805Z,4.60
2017-09-21T12:14:45.097Z,5.40
2017-09-21T12:17:12.383Z,5.87
2017-09-21T12:19:39.652Z,5.10
2017-09-21T12:22:06.933Z,6.10
2017-09-21T12:24:34.232Z,6.20
2017-09-21T12:27:01.552Z,5.27
2017-09-21T12:29:28.835Z,6.27
2017-09-21T12:31:56.159Z,5.57
2017-09-21T12:34:23.481Z,6.10
2017-09-21T12:36:50.764Z,5.63
2017-09-21T12:39:18.081Z,5.93
2017-09-21T12:41:45.442Z,6.77
2017-09-21T12:44:12.703Z,6.53
2017-09-21T12:46:40.038Z,6.13
2017-09-21T12:49:07.332Z,6.27
2017-09-21T12:51:34.960Z,6.30
2017-09-21T12:54:02.240Z,6.77
2017-09-21T12:56:29.972Z,7.00
2017-09-21T12:58:57.230Z,7.53
2017-09-21T13:01:24.487Z,7.20
2017-09-21T13:03:51.783Z,7.50
2017-09-21T13:06:19.141Z,7.23
2017-09-21T13:08:46.511Z,7.97
2017-09-21T13:11:13.776Z,5.97
2017-09-21T13:13:41.064Z,5.53
2017-09-21T13:16:08.324Z,5.70
2017-09-21T13:18:35.595Z,4.73
2017-09-21T13:21:02.889Z,5.27
2017-09-21T13:23:30.151Z,5.50
2017-09-21T13:25:57.593Z,5.70
2017-09-21T13:28:24.859Z,5.73
2017-09-21T13:30:52.158Z,5.00
2017-09-21T13:33:19.460Z,5.60
2017-09-21T13:35:46.743Z,6.10
2017-09-21T13:38:14.060Z,7.03
2017-09-21T13:40:41.345Z,5.03
2017-09-21T13:43:08.783Z,4.83
2017-09-21T13:45:36.068Z,5.00
2017-09-21T13:48:03.349Z,5.37
2017-09-21T13:50:30.634Z,4.87
2017-09-21T13:52:58.139Z,6.03
2017-09-21T13:55:25.453Z,6.80
2017-09-21T13:57:52.778Z,6.53
2017-09-21T14:00:20.177Z,7.53
2017-09-21T14:02:47.644Z,7.40
2017-09-21T14:05:14.980Z,7.10
2017-09-21T14:07:42.292Z,7.73
2017-09-21T14:10:09.669Z,6.40
2017-09-21T14:12:36.962Z,7.07
2017-09-21T14:15:04.463Z,6.13
2017-09-21T14:17:31.735Z,6.17
2017-09-21T14:19:59.491Z,4.93
2017-09-21T14:22:26.846Z,6.40
2017-09-21T14:24:54.123Z,5.83
2017-09-21T14:27:21.427Z,5.93
2017-09-21T14:29:48.713Z,6.10
2017-09-21T14:32:16.049Z,5.70
2017-09-21T14:34:43.312Z,5.53
2017-09-21T14:37:10.606Z,6.53
2017-09-21T14:39:38.008Z,5.80
2017-09-21T14:42:05.287Z,6.47
2017-09-21T14:44:32.609Z,5.60
2017-09-21T14:46:59.898Z,6.93
2017-09-21T14:49:27.209Z,7.13
2017-09-21T14:51:54.524Z,7.70
2017-09-21T14:54:21.978Z,6.83
2017-09-21T14:56:49.297Z,6.33
2017-09-21T14:59:16.617Z,6.00
2017-09-21T15:01:43.881Z,6.20
2017-09-21T15:04:11.186Z,6.07
2017-09-21T15:06:38.467Z,6.47
2017-09-21T15:09:05.778Z,6.80
2017-09-21T15:11:33.040Z,6.57
2017-09-21T15:14:00.313Z,6.40
2017-09-21T15:16:27.614Z,5.90
2017-09-21T15:18:54.928Z,6.23
2017-09-21T15:21:22.304Z,6.20
2017-09-21T15:23:49.590Z,6.00
2017-09-21T15:26:16.870Z,5.90
2017-09-21T15:28:44.168Z,5.80
2017-09-21T15:31:11.451Z,6.80
2017-09-21T15:33:38.756Z,5.80
2017-09-21T15:36:06.051Z,5.70
2017-09-21T15:38:33.375Z,7.20
2017-09-21T15:41:00.646Z,5.97
2017-09-21T15:43:27.952Z,6.60
2017-09-21T15:45:55.266Z,6.30
2017-09-21T15:48:22.578Z,6.23
2017-09-21T15:50:49.913Z,7.80
2017-09-21T15:53:17.224Z,7.50
2017-09-21T15:55:44.509Z,5.70
2017-09-21T15:58:11.884Z,5.70
2017-09-21T16:00:39.171Z,6.33
2017-09-21T16:03:06.472Z,6.47
2017-09-21T16:05:33.849Z,6.60
2017-09-21T16:08:01.344Z,6.07
2017-09-21T16:10:28.623Z,6.37
2017-09-21T16:12:55.941Z,6.90
2017-09-21T16:15:23.265Z,6.23
2017-09-21T16:17:50.559Z,6.50
2017-09-21T16:20:17.883Z,6.63
2017-09-21T16:22:45.167Z,5.73
2017-09-21T16:25:12.494Z,6.00
2017-09-21T16:27:39.772Z,6.17
2017-09-21T16:30:07.066Z,6.47
2017-09-21T16:32:34.359Z,6.30
2017-09-21T16:35:01.623Z,6.83
2017-09-21T16:37:28.879Z,6.90
2017-09-21T16:39:56.610Z,7.27
2017-09-21T16:42:23.859Z,7.00
2017-09-21T16:44:51.127Z,7.80
2017-09-21T16:47:18.422Z,8.03
2017-09-21T16:49:45.691Z,6.83
2017-09-21T16:52:12.979Z,6.73
2017-09-21T16:54:40.277Z,7.27
2017-09-21T16:57:07.544Z,7.30
2017-09-21T16:59:34.799Z,7.30
2017-09-21T17:02:02.103Z,8.60
2017-09-21T17:04:29.367Z,8.03
2017-09-21T17:06:56.636Z,8.57
2017-09-21T17:09:23.936Z,6.90
2017-09-21T17:11:51.191Z,7.50
2017-09-21T17:14:18.462Z,7.00
2017-09-21T17:16:45.743Z,7.20
2017-09-21T17:19:13.617Z,7.40
2017-09-21T17:21:43.798Z,8.20
2017-09-21T17:24:11.799Z,8.90
2017-09-21T17:26:41.540Z,10.70
2017-09-21T17:29:08.805Z,9.00
2017-09-21T17:31:36.202Z,8.23
2017-09-21T17:34:03.499Z,8.67
2017-09-21T17:36:30.755Z,7.07
2017-09-21T17:38:58.051Z,7.37
2017-09-21T17:41:25.314Z,8.03
2017-09-21T17:43:52.576Z,8.07
2017-09-21T17:46:19.872Z,8.60
2017-09-21T17:48:47.164Z,5.83
2017-09-21T17:51:14.442Z,7.53
2017-09-21T17:53:41.701Z,7.13
2017-09-21T17:56:08.996Z,7.00
2017-09-21T17:58:36.252Z,7.20
2017-09-21T18:01:03.555Z,6.77
2017-09-21T18:03:30.826Z,6.70
2017-09-21T18:05:58.092Z,6.67
2017-09-21T18:08:25.375Z,5.63
2017-09-21T18:10:52.635Z,6.40
2017-09-21T18:13:19.920Z,6.70
2017-09-21T18:15:47.216Z,7.63
2017-09-21T18:18:14.479Z,6.20
2017-09-21T18:20:41.741Z,7.03
2017-09-21T18:23:09.031Z,6.63
2017-09-21T18:25:36.368Z,7.70
2017-09-21T18:28:03.744Z,6.60
2017-09-21T18:30:31.079Z,6.87
2017-09-21T18:32:59.296Z,6.33
2017-09-21T18:35:26.659Z,6.50
2017-09-21T18:37:54.033Z,6.60
2017-09-21T18:40:22.391Z,6.63
2017-09-21T18:42:49.663Z,8.00
2017-09-21T18:45:16.988Z,5.57
2017-09-21T18:47:44.304Z,5.50
2017-09-21T18:50:11.596Z,5.97
2017-09-21T18:52:38.892Z,6.33
2017-09-21T18:55:06.293Z,5.80
2017-09-21T18:57:33.620Z,7.33
2017-09-21T19:00:01.025Z,7.33
2017-09-21T19:02:28.348Z,6.97
2017-09-21T19:04:55.734Z,7.67
2017-09-21T19:07:23.103Z,6.80
2017-09-21T19:09:50.387Z,6.47
2017-09-21T19:12:17.784Z,6.83
2017-09-21T19:14:45.161Z,6.70
2017-09-21T19:17:13.455Z,7.40
2017-09-21T19:19:40.798Z,8.47
2017-09-21T19:22:08.886Z,8.20
2017-09-21T19:24:36.233Z,8.47
2017-09-21T19:27:03.499Z,6.83
2017-09-21T19:29:30.846Z,7.50
2017-09-21T19:31:58.201Z,6.83
2017-09-21T19:34:25.611Z,7.90
2017-09-21T19:36:52.904Z,9.40
2017-09-21T19:39:20.232Z,8.70
2017-09-21T19:41:47.593Z,7.60
2017-09-21T19:44:14.910Z,6.83
2017-09-21T19:46:42.317Z,9.53
2017-09-21T19:49:09.610Z,7.63
2017-09-21T19:51:36.995Z,9.53
2017-09-21T19:54:04.320Z,8.20
2017-09-21T19:56:31.705Z,7.97
2017-09-21T19:58:59.003Z,8.43
2017-09-21T20:01:26.312Z,8.60
2017-09-21T20:03:53.648Z,8.20
2017-09-21T20:06:21.093Z,10.80
2017-09-21T20:08:48.460Z,11.30
2017-09-21T20:11:15.789Z,11.20
2017-09-21T20:13:43.108Z,9.20
2017-09-21T20:16:10.455Z,9.40
2017-09-21T20:18:37.882Z,9.10
2017-09-21T20:21:05.264Z,10.67
2017-09-21T20:23:32.626Z,8.97
2017-09-21T20:25:59.997Z,8.80
2017-09-21T20:28:27.355Z,9.90
2017-09-21T20:30:54.751Z,10.73
2017-09-21T20:33:22.091Z,9.10
2017-09-21T20:35:49.499Z,10.20
2017-09-21T20:38:16.920Z,8.93
2017-09-21T20:40:44.310Z,11.17
2017-09-21T20:43:11.631Z,9.97
2017-09-21T20:45:39.058Z,8.90
2017-09-21T20:48:06.439Z,9.03
2017-09-21T20:50:33.757Z,7.90
2017-09-21T20:53:01.139Z,9.17
2017-09-21T20:55:28.537Z,10.50
2017-09-21T20:57:55.876Z,10.73
2017-09-21T21:00:23.277Z,8.93
2017-09-21T21:02:50.740Z,7.60
2017-09-21T21:05:18.044Z,7.83
2017-09-21T21:07:45.379Z,9.20
2017-09-21T21:12:47.208Z,8.60
2017-09-21T21:15:14.630Z,7.37
2017-09-21T21:17:41.997Z,8.30
2017-09-21T21:20:09.476Z,7.30
2017-09-21T21:22:36.777Z,7.40
2017-09-21T21:25:04.112Z,7.10
2017-09-21T21:27:31.562Z,8.80
2017-09-21T21:29:58.833Z,8.40
2017-09-21T21:32:26.270Z,9.03
2017-09-21T21:34:53.628Z,7.87
2017-09-21T21:37:21.054Z,7.57
2017-09-21T21:39:48.430Z,8.20
2017-09-21T21:42:16.988Z,8.03
2017-09-21T21:44:44.937Z,7.20
2017-09-21T21:47:12.363Z,7.30
2017-09-21T21:49:40.515Z,8.20
2017-09-21T21:52:07.821Z,7.17
2017-09-21T21:54:35.456Z,8.70
2017-09-21T21:57:02.786Z,7.40
2017-09-21T21:59:30.188Z,7.37
2017-09-21T22:01:57.565Z,8.20
2017-09-21T22:04:24.955Z,8.37
2017-09-21T22:06:52.288Z,8.07
2017-09-21T22:09:19.640Z,9.30
2017-09-21T22:11:47.218Z,8.40
2017-09-21T22:14:14.561Z,8.23
2017-09-21T22:16:42.088Z,9.30
2017-09-21T22:19:09.452Z,8.50
2017-09-21T22:21:36.940Z,8.40
2017-09-21T22:24:04.398Z,9.80
2017-09-21T22:26:32.627Z,8.37
2017-09-21T22:28:59.965Z,9.23
2017-09-21T22:31:27.332Z,8.00
2017-09-21T22:33:54.683Z,7.57
2017-09-21T22:36:22.095Z,6.57
2017-09-21T22:38:49.474Z,7.10
2017-09-21T22:41:16.851Z,7.63
2017-09-21T22:43:44.218Z,7.67
2017-09-21T22:46:11.584Z,8.40
2017-09-21T22:48:38.967Z,9.03
2017-09-21T22:51:06.335Z,7.40
2017-09-21T22:53:33.692Z,7.67
2017-09-21T22:56:01.148Z,7.13
2017-09-21T22:58:28.513Z,6.67
2017-09-21T23:00:55.968Z,6.80
2017-09-21T23:03:23.427Z,7.10
2017-09-21T23:05:50.790Z,8.43
2017-09-21T23:08:18.153Z,7.70
2017-09-21T23:10:45.511Z,7.43
2017-09-21T23:13:12.853Z,6.97
2017-09-21T23:15:40.311Z,8.00
2017-09-21T23:18:07.646Z,8.50
2017-09-21T23:20:35.003Z,6.67
2017-09-21T23:23:02.436Z,6.40
2017-09-21T23:25:29.754Z,7.63
2017-09-21T23:27:58.119Z,6.73
2017-09-21T23:30:25.526Z,7.10
2017-09-21T23:32:52.887Z,7.20
2017-09-21T23:35:20.302Z,7.97
2017-09-21T23:37:47.640Z,7.03
2017-09-21T23:40:14.955Z,7.83
2017-09-21T23:42:42.375Z,9.20
2017-09-21T23:45:09.775Z,6.93
2017-09-21T23:47:37.197Z,7.13
2017-09-21T23:50:04.663Z,8.20
2017-09-21T23:52:32.020Z,7.37
2017-09-21T23:54:59.502Z,7.80
2017-09-21T23:57:26.929Z,6.90
2017-09-21T23:59:54.257Z,8.63
